Skip Navigation LinksHome page > Weather > Current weather Skip Navigation Links

Current Weather

Eureka, Nunavut

For information only: do not use for flight planning or navigation.
Latest weather
Observation time Sunday, May 31, 2015 10:00 PM CDT
Local time Tuesday, June 30, 2015 11:50 PM CDT
Flight conditions Visual Meteorological Conditions
Winds
Wind direction South-Southeast (160°)
Wind speed 18 mph
Wind gusting to 26 mph
Visibility 15 mi.
Sky condition
Ceiling 9,000 ft. broken clouds
Cloud layer few clouds 6,000 ft.
Cloud layer broken clouds 9,000 ft.
Temperature 50°F
Dewpoint 34°F
Altimeter 29.91 in.Hg
Derived measurements
Relative humidity 54%
Wind chill 44°F
Density altitude -452 ft.
Sea-level pressure 29.91 in.Hg
Remarks
Last observation of the day.
METAR CWEU 010300Z 16016G23KT 15SM FEW060 BKN090 10/01 A2991 RMK SC1AC2 LAST OBS/NEXT 010600Z SLP129

Settings

Location code

InnerDrive.Weather 4.0.5567.0 Release CLR 4.0.30319.34014
Copyright ©2015 Inner Drive Technology. All rights reserved. Portions Copyright ©1986-2015 David Braverman.

Find weather

Site navigation


Skip Navigation Links

Place info

Page info

PayPal - The safer, easier way to pay online!

Return home.

Copyright ©2015 Inner Drive Technology. Purveyors of fine, hand-crafted computer software. Page printed 2015-07-01T04:50:40 UTC.